sensor_id;sensor_type;location;lat;lon;timestamp;P1;durP1;ratioP1;P2;durP2;ratioP2
27802;SDS011;15182;48.174;11.562;2023-11-22T00:01:54;6.33;;;5.80;;
27802;SDS011;15182;48.174;11.562;2023-11-22T00:04:22;6.27;;;5.87;;
27802;SDS011;15182;48.174;11.562;2023-11-22T00:06:50;5.90;;;5.40;;
27802;SDS011;15182;48.174;11.562;2023-11-22T00:09:18;6.07;;;5.57;;
27802;SDS011;15182;48.174;11.562;2023-11-22T00:11:48;5.63;;;5.30;;
27802;SDS011;15182;48.174;11.562;2023-11-22T00:14:18;6.50;;;6.00;;
27802;SDS011;15182;48.174;11.562;2023-11-22T00:16:46;7.13;;;5.67;;
27802;SDS011;15182;48.174;11.562;2023-11-22T00:19:13;6.27;;;5.80;;
27802;SDS011;15182;48.174;11.562;2023-11-22T00:21:44;8.13;;;6.30;;
27802;SDS011;15182;48.174;11.562;2023-11-22T00:24:11;6.07;;;5.70;;
27802;SDS011;15182;48.174;11.562;2023-11-22T00:26:39;6.10;;;5.70;;
27802;SDS011;15182;48.174;11.562;2023-11-22T00:29:07;6.33;;;5.93;;
27802;SDS011;15182;48.174;11.562;2023-11-22T00:31:36;6.03;;;5.60;;
27802;SDS011;15182;48.174;11.562;2023-11-22T00:34:05;6.00;;;5.70;;
27802;SDS011;15182;48.174;11.562;2023-11-22T00:36:33;6.20;;;5.80;;
27802;SDS011;15182;48.174;11.562;2023-11-22T00:39:00;6.80;;;6.30;;
27802;SDS011;15182;48.174;11.562;2023-11-22T00:41:30;6.87;;;6.27;;
27802;SDS011;15182;48.174;11.562;2023-11-22T00:43:58;6.93;;;6.23;;
27802;SDS011;15182;48.174;11.562;2023-11-22T00:46:26;6.27;;;5.97;;
27802;SDS011;15182;48.174;11.562;2023-11-22T00:48:55;6.90;;;6.30;;
27802;SDS011;15182;48.174;11.562;2023-11-22T00:51:23;6.87;;;6.23;;
27802;SDS011;15182;48.174;11.562;2023-11-22T00:53:52;6.63;;;6.10;;
27802;SDS011;15182;48.174;11.562;2023-11-22T00:56:20;6.20;;;5.70;;
27802;SDS011;15182;48.174;11.562;2023-11-22T00:58:48;5.83;;;5.33;;
27802;SDS011;15182;48.174;11.562;2023-11-22T01:01:16;7.57;;;6.83;;
27802;SDS011;15182;48.174;11.562;2023-11-22T01:03:44;6.40;;;5.80;;
27802;SDS011;15182;48.174;11.562;2023-11-22T01:06:14;6.53;;;5.80;;
27802;SDS011;15182;48.174;11.562;2023-11-22T01:08:43;5.53;;;5.13;;
27802;SDS011;15182;48.174;11.562;2023-11-22T01:11:12;6.27;;;5.77;;
27802;SDS011;15182;48.174;11.562;2023-11-22T01:13:40;6.73;;;6.30;;
27802;SDS011;15182;48.174;11.562;2023-11-22T01:16:09;5.97;;;5.60;;
27802;SDS011;15182;48.174;11.562;2023-11-22T01:18:38;6.33;;;5.90;;
27802;SDS011;15182;48.174;11.562;2023-11-22T01:21:06;6.63;;;6.23;;
27802;SDS011;15182;48.174;11.562;2023-11-22T01:23:36;6.17;;;5.70;;
27802;SDS011;15182;48.174;11.562;2023-11-22T01:26:03;6.50;;;5.87;;
27802;SDS011;15182;48.174;11.562;2023-11-22T01:28:32;9.50;;;5.97;;
27802;SDS011;15182;48.174;11.562;2023-11-22T01:31:00;6.10;;;5.50;;
27802;SDS011;15182;48.174;11.562;2023-11-22T01:33:30;6.20;;;5.80;;
27802;SDS011;15182;48.174;11.562;2023-11-22T01:36:01;5.93;;;5.43;;
27802;SDS011;15182;48.174;11.562;2023-11-22T01:38:29;6.13;;;5.83;;
27802;SDS011;15182;48.174;11.562;2023-11-22T01:40:58;7.17;;;6.53;;
27802;SDS011;15182;48.174;11.562;2023-11-22T01:43:28;6.03;;;5.60;;
27802;SDS011;15182;48.174;11.562;2023-11-22T01:45:55;6.30;;;5.70;;
27802;SDS011;15182;48.174;11.562;2023-11-22T01:48:23;6.67;;;6.20;;
27802;SDS011;15182;48.174;11.562;2023-11-22T01:50:53;6.20;;;5.80;;
27802;SDS011;15182;48.174;11.562;2023-11-22T01:53:21;6.23;;;5.70;;
27802;SDS011;15182;48.174;11.562;2023-11-22T01:55:49;6.37;;;5.97;;
27802;SDS011;15182;48.174;11.562;2023-11-22T01:58:18;6.33;;;5.90;;
27802;SDS011;15182;48.174;11.562;2023-11-22T02:00:49;5.93;;;5.20;;
27802;SDS011;15182;48.174;11.562;2023-11-22T02:03:18;4.43;;;4.33;;
27802;SDS011;15182;48.174;11.562;2023-11-22T02:05:46;4.40;;;4.30;;
27802;SDS011;15182;48.174;11.562;2023-11-22T02:08:15;4.40;;;4.20;;
27802;SDS011;15182;48.174;11.562;2023-11-22T02:10:44;4.13;;;4.03;;
27802;SDS011;15182;48.174;11.562;2023-11-22T02:13:15;4.00;;;3.90;;
27802;SDS011;15182;48.174;11.562;2023-11-22T02:15:44;3.90;;;3.80;;
27802;SDS011;15182;48.174;11.562;2023-11-22T02:18:12;3.77;;;3.77;;
27802;SDS011;15182;48.174;11.562;2023-11-22T02:20:40;2.90;;;2.90;;
27802;SDS011;15182;48.174;11.562;2023-11-22T02:23:10;3.50;;;3.40;;
27802;SDS011;15182;48.174;11.562;2023-11-22T02:25:38;3.60;;;3.50;;
27802;SDS011;15182;48.174;11.562;2023-11-22T02:28:07;3.10;;;3.10;;
27802;SDS011;15182;48.174;11.562;2023-11-22T02:30:35;3.00;;;3.00;;
27802;SDS011;15182;48.174;11.562;2023-11-22T02:33:03;3.23;;;3.23;;
27802;SDS011;15182;48.174;11.562;2023-11-22T02:35:32;3.30;;;3.20;;
27802;SDS011;15182;48.174;11.562;2023-11-22T02:38:00;3.00;;;3.00;;
27802;SDS011;15182;48.174;11.562;2023-11-22T02:40:30;2.90;;;2.90;;
27802;SDS011;15182;48.174;11.562;2023-11-22T02:42:58;3.17;;;3.17;;
27802;SDS011;15182;48.174;11.562;2023-11-22T02:45:31;3.47;;;3.37;;
27802;SDS011;15182;48.174;11.562;2023-11-22T02:47:59;3.33;;;3.33;;
27802;SDS011;15182;48.174;11.562;2023-11-22T02:50:29;3.20;;;3.20;;
27802;SDS011;15182;48.174;11.562;2023-11-22T02:52:57;3.20;;;3.20;;
27802;SDS011;15182;48.174;11.562;2023-11-22T02:55:26;3.43;;;3.33;;
27802;SDS011;15182;48.174;11.562;2023-11-22T02:57:56;3.83;;;3.73;;
27802;SDS011;15182;48.174;11.562;2023-11-22T03:00:24;3.37;;;3.37;;
27802;SDS011;15182;48.174;11.562;2023-11-22T03:02:51;3.17;;;3.17;;
27802;SDS011;15182;48.174;11.562;2023-11-22T03:05:19;3.23;;;3.20;;
27802;SDS011;15182;48.174;11.562;2023-11-22T03:07:48;3.40;;;3.40;;
27802;SDS011;15182;48.174;11.562;2023-11-22T03:10:18;3.27;;;3.27;;
27802;SDS011;15182;48.174;11.562;2023-11-22T03:12:46;3.20;;;3.10;;
27802;SDS011;15182;48.174;11.562;2023-11-22T03:15:15;3.47;;;3.37;;
27802;SDS011;15182;48.174;11.562;2023-11-22T03:17:43;3.40;;;3.30;;
27802;SDS011;15182;48.174;11.562;2023-11-22T03:20:11;3.07;;;3.07;;
27802;SDS011;15182;48.174;11.562;2023-11-22T03:22:39;3.97;;;3.87;;
27802;SDS011;15182;48.174;11.562;2023-11-22T03:25:09;3.83;;;3.80;;
27802;SDS011;15182;48.174;11.562;2023-11-22T03:27:38;3.57;;;3.47;;
27802;SDS011;15182;48.174;11.562;2023-11-22T03:30:07;3.80;;;3.70;;
27802;SDS011;15182;48.174;11.562;2023-11-22T03:32:39;3.93;;;3.83;;
27802;SDS011;15182;48.174;11.562;2023-11-22T03:35:08;3.80;;;3.70;;
27802;SDS011;15182;48.174;11.562;2023-11-22T03:37:37;3.47;;;3.43;;
27802;SDS011;15182;48.174;11.562;2023-11-22T03:40:05;4.17;;;4.07;;
27802;SDS011;15182;48.174;11.562;2023-11-22T03:42:35;3.37;;;3.27;;
27802;SDS011;15182;48.174;11.562;2023-11-22T03:45:05;3.70;;;3.60;;
27802;SDS011;15182;48.174;11.562;2023-11-22T03:47:34;3.70;;;3.60;;
27802;SDS011;15182;48.174;11.562;2023-11-22T03:50:05;4.27;;;4.17;;
27802;SDS011;15182;48.174;11.562;2023-11-22T03:52:35;4.20;;;4.10;;
27802;SDS011;15182;48.174;11.562;2023-11-22T03:55:03;3.97;;;3.87;;
27802;SDS011;15182;48.174;11.562;2023-11-22T03:57:32;4.10;;;3.87;;
27802;SDS011;15182;48.174;11.562;2023-11-22T04:00:01;3.93;;;3.80;;
27802;SDS011;15182;48.174;11.562;2023-11-22T04:02:38;3.90;;;3.80;;
27802;SDS011;15182;48.174;11.562;2023-11-22T04:05:09;3.63;;;3.63;;
27802;SDS011;15182;48.174;11.562;2023-11-22T04:07:38;4.13;;;4.03;;
27802;SDS011;15182;48.174;11.562;2023-11-22T04:10:06;3.90;;;3.80;;
27802;SDS011;15182;48.174;11.562;2023-11-22T04:12:35;4.53;;;3.97;;
27802;SDS011;15182;48.174;11.562;2023-11-22T04:15:03;3.60;;;3.50;;
27802;SDS011;15182;48.174;11.562;2023-11-22T04:17:34;3.70;;;3.60;;
27802;SDS011;15182;48.174;11.562;2023-11-22T04:20:04;3.80;;;3.70;;
27802;SDS011;15182;48.174;11.562;2023-11-22T04:22:37;4.03;;;3.93;;
27802;SDS011;15182;48.174;11.562;2023-11-22T04:25:06;3.70;;;3.63;;
27802;SDS011;15182;48.174;11.562;2023-11-22T04:27:35;3.50;;;3.50;;
27802;SDS011;15182;48.174;11.562;2023-11-22T04:30:04;3.60;;;3.50;;
27802;SDS011;15182;48.174;11.562;2023-11-22T04:32:35;4.37;;;4.27;;
27802;SDS011;15182;48.174;11.562;2023-11-22T04:35:03;3.90;;;3.80;;
27802;SDS011;15182;48.174;11.562;2023-11-22T04:37:32;4.07;;;3.97;;
27802;SDS011;15182;48.174;11.562;2023-11-22T04:40:02;3.83;;;3.73;;
27802;SDS011;15182;48.174;11.562;2023-11-22T04:42:34;3.80;;;3.70;;
27802;SDS011;15182;48.174;11.562;2023-11-22T04:45:03;3.50;;;3.50;;
27802;SDS011;15182;48.174;11.562;2023-11-22T04:47:32;4.00;;;3.90;;
27802;SDS011;15182;48.174;11.562;2023-11-22T04:50:00;3.93;;;3.83;;
27802;SDS011;15182;48.174;11.562;2023-11-22T04:52:28;3.23;;;3.23;;
27802;SDS011;15182;48.174;11.562;2023-11-22T04:54:56;3.70;;;3.43;;
27802;SDS011;15182;48.174;11.562;2023-11-22T04:57:26;4.20;;;4.10;;
27802;SDS011;15182;48.174;11.562;2023-11-22T04:59:53;3.70;;;3.60;;
27802;SDS011;15182;48.174;11.562;2023-11-22T05:02:21;3.20;;;3.20;;
27802;SDS011;15182;48.174;11.562;2023-11-22T05:04:49;3.70;;;3.60;;
27802;SDS011;15182;48.174;11.562;2023-11-22T05:07:18;3.50;;;3.40;;
27802;SDS011;15182;48.174;11.562;2023-11-22T05:09:46;3.97;;;3.73;;
27802;SDS011;15182;48.174;11.562;2023-11-22T05:12:14;4.10;;;3.97;;
27802;SDS011;15182;48.174;11.562;2023-11-22T05:14:43;3.50;;;3.40;;
27802;SDS011;15182;48.174;11.562;2023-11-22T05:17:11;4.03;;;3.83;;
27802;SDS011;15182;48.174;11.562;2023-11-22T05:19:39;4.00;;;3.90;;
27802;SDS011;15182;48.174;11.562;2023-11-22T05:22:07;3.70;;;3.60;;
27802;SDS011;15182;48.174;11.562;2023-11-22T05:24:35;4.47;;;4.17;;
27802;SDS011;15182;48.174;11.562;2023-11-22T05:27:06;3.90;;;3.60;;
27802;SDS011;15182;48.174;11.562;2023-11-22T05:29:34;3.90;;;3.80;;
27802;SDS011;15182;48.174;11.562;2023-11-22T05:32:05;4.00;;;3.90;;
27802;SDS011;15182;48.174;11.562;2023-11-22T05:34:33;3.90;;;3.90;;
27802;SDS011;15182;48.174;11.562;2023-11-22T05:37:01;3.73;;;3.63;;
27802;SDS011;15182;48.174;11.562;2023-11-22T05:39:31;3.50;;;3.50;;
27802;SDS011;15182;48.174;11.562;2023-11-22T05:41:59;3.97;;;3.87;;
27802;SDS011;15182;48.174;11.562;2023-11-22T05:44:27;3.53;;;3.53;;
27802;SDS011;15182;48.174;11.562;2023-11-22T05:46:55;3.77;;;3.67;;
27802;SDS011;15182;48.174;11.562;2023-11-22T05:49:24;3.90;;;3.80;;
27802;SDS011;15182;48.174;11.562;2023-11-22T05:51:52;3.60;;;3.50;;
27802;SDS011;15182;48.174;11.562;2023-11-22T05:54:19;3.50;;;3.50;;
27802;SDS011;15182;48.174;11.562;2023-11-22T05:56:47;3.47;;;3.47;;
27802;SDS011;15182;48.174;11.562;2023-11-22T05:59:15;3.40;;;3.40;;
27802;SDS011;15182;48.174;11.562;2023-11-22T06:01:43;3.80;;;3.70;;
27802;SDS011;15182;48.174;11.562;2023-11-22T06:04:11;3.70;;;3.60;;
27802;SDS011;15182;48.174;11.562;2023-11-22T06:06:40;3.80;;;3.70;;
27802;SDS011;15182;48.174;11.562;2023-11-22T06:09:08;3.73;;;3.73;;
27802;SDS011;15182;48.174;11.562;2023-11-22T06:11:39;3.70;;;3.60;;
27802;SDS011;15182;48.174;11.562;2023-11-22T06:14:07;4.10;;;4.00;;
27802;SDS011;15182;48.174;11.562;2023-11-22T06:16:35;3.70;;;3.70;;
27802;SDS011;15182;48.174;11.562;2023-11-22T06:19:03;3.87;;;3.77;;
27802;SDS011;15182;48.174;11.562;2023-11-22T06:21:31;3.70;;;3.70;;
27802;SDS011;15182;48.174;11.562;2023-11-22T06:24:01;3.73;;;3.63;;
27802;SDS011;15182;48.174;11.562;2023-11-22T06:26:29;4.13;;;4.03;;
27802;SDS011;15182;48.174;11.562;2023-11-22T06:28:58;4.87;;;4.67;;
27802;SDS011;15182;48.174;11.562;2023-11-22T06:31:26;4.03;;;3.93;;
27802;SDS011;15182;48.174;11.562;2023-11-22T06:33:53;4.57;;;4.47;;
27802;SDS011;15182;48.174;11.562;2023-11-22T06:36:21;5.00;;;4.80;;
27802;SDS011;15182;48.174;11.562;2023-11-22T06:38:49;5.37;;;5.07;;
27802;SDS011;15182;48.174;11.562;2023-11-22T06:41:18;4.70;;;4.50;;
27802;SDS011;15182;48.174;11.562;2023-11-22T06:43:47;5.00;;;4.80;;
27802;SDS011;15182;48.174;11.562;2023-11-22T06:46:15;4.57;;;4.47;;
27802;SDS011;15182;48.174;11.562;2023-11-22T06:48:43;4.70;;;4.50;;
27802;SDS011;15182;48.174;11.562;2023-11-22T06:51:10;4.77;;;4.67;;
27802;SDS011;15182;48.174;11.562;2023-11-22T06:53:38;4.83;;;4.63;;
27802;SDS011;15182;48.174;11.562;2023-11-22T06:56:07;4.67;;;4.47;;
27802;SDS011;15182;48.174;11.562;2023-11-22T06:58:36;4.60;;;4.50;;
27802;SDS011;15182;48.174;11.562;2023-11-22T07:01:04;4.47;;;4.37;;
27802;SDS011;15182;48.174;11.562;2023-11-22T07:03:33;4.50;;;4.40;;
27802;SDS011;15182;48.174;11.562;2023-11-22T07:06:00;4.77;;;4.67;;
27802;SDS011;15182;48.174;11.562;2023-11-22T07:08:30;5.07;;;4.60;;
27802;SDS011;15182;48.174;11.562;2023-11-22T07:10:57;4.30;;;4.20;;
27802;SDS011;15182;48.174;11.562;2023-11-22T07:13:25;4.70;;;4.60;;
27802;SDS011;15182;48.174;11.562;2023-11-22T07:15:55;4.77;;;4.67;;
27802;SDS011;15182;48.174;11.562;2023-11-22T07:18:22;4.90;;;4.80;;
27802;SDS011;15182;48.174;11.562;2023-11-22T07:20:50;4.90;;;4.63;;
27802;SDS011;15182;48.174;11.562;2023-11-22T07:23:19;5.50;;;5.20;;
27802;SDS011;15182;48.174;11.562;2023-11-22T07:25:51;5.47;;;5.07;;
27802;SDS011;15182;48.174;11.562;2023-11-22T07:28:20;4.97;;;4.67;;
27802;SDS011;15182;48.174;11.562;2023-11-22T07:30:48;5.30;;;5.10;;
27802;SDS011;15182;48.174;11.562;2023-11-22T07:33:19;5.67;;;5.27;;
27802;SDS011;15182;48.174;11.562;2023-11-22T07:35:47;5.70;;;5.43;;
27802;SDS011;15182;48.174;11.562;2023-11-22T07:38:15;5.67;;;5.40;;
27802;SDS011;15182;48.174;11.562;2023-11-22T07:40:43;5.40;;;5.10;;
27802;SDS011;15182;48.174;11.562;2023-11-22T07:43:11;5.53;;;5.30;;
27802;SDS011;15182;48.174;11.562;2023-11-22T07:45:38;4.90;;;4.70;;
27802;SDS011;15182;48.174;11.562;2023-11-22T07:48:06;5.47;;;5.20;;
27802;SDS011;15182;48.174;11.562;2023-11-22T07:50:38;5.53;;;5.23;;
27802;SDS011;15182;48.174;11.562;2023-11-22T07:53:09;6.23;;;5.13;;
27802;SDS011;15182;48.174;11.562;2023-11-22T07:55:37;5.00;;;4.80;;
27802;SDS011;15182;48.174;11.562;2023-11-22T07:58:05;5.43;;;5.20;;
27802;SDS011;15182;48.174;11.562;2023-11-22T08:00:33;5.37;;;5.07;;
27802;SDS011;15182;48.174;11.562;2023-11-22T08:03:02;5.00;;;4.83;;
27802;SDS011;15182;48.174;11.562;2023-11-22T08:05:32;5.40;;;5.03;;
27802;SDS011;15182;48.174;11.562;2023-11-22T08:08:03;5.60;;;5.30;;
27802;SDS011;15182;48.174;11.562;2023-11-22T08:10:34;5.57;;;5.27;;
27802;SDS011;15182;48.174;11.562;2023-11-22T08:13:02;5.57;;;5.27;;
27802;SDS011;15182;48.174;11.562;2023-11-22T08:15:30;5.77;;;5.47;;
27802;SDS011;15182;48.174;11.562;2023-11-22T08:17:58;5.47;;;5.23;;
27802;SDS011;15182;48.174;11.562;2023-11-22T08:20:27;5.77;;;5.50;;
27802;SDS011;15182;48.174;11.562;2023-11-22T08:22:55;5.53;;;5.23;;
27802;SDS011;15182;48.174;11.562;2023-11-22T08:25:25;5.13;;;4.93;;
27802;SDS011;15182;48.174;11.562;2023-11-22T08:27:53;5.80;;;5.50;;
27802;SDS011;15182;48.174;11.562;2023-11-22T08:30:20;6.53;;;6.13;;
27802;SDS011;15182;48.174;11.562;2023-11-22T08:32:49;5.63;;;5.13;;
27802;SDS011;15182;48.174;11.562;2023-11-22T08:35:19;5.30;;;4.87;;
27802;SDS011;15182;48.174;11.562;2023-11-22T08:37:47;5.40;;;5.10;;
27802;SDS011;15182;48.174;11.562;2023-11-22T08:40:16;4.87;;;4.67;;
27802;SDS011;15182;48.174;11.562;2023-11-22T08:42:47;5.13;;;4.83;;
27802;SDS011;15182;48.174;11.562;2023-11-22T08:45:15;5.10;;;4.90;;
27802;SDS011;15182;48.174;11.562;2023-11-22T08:47:43;5.03;;;4.67;;
27802;SDS011;15182;48.174;11.562;2023-11-22T08:50:12;4.67;;;4.47;;
27802;SDS011;15182;48.174;11.562;2023-11-22T08:52:41;4.93;;;4.83;;
27802;SDS011;15182;48.174;11.562;2023-11-22T08:55:10;5.20;;;5.00;;
27802;SDS011;15182;48.174;11.562;2023-11-22T08:57:40;4.87;;;4.67;;
27802;SDS011;15182;48.174;11.562;2023-11-22T09:00:10;4.93;;;4.73;;
27802;SDS011;15182;48.174;11.562;2023-11-22T09:02:40;5.40;;;5.20;;
27802;SDS011;15182;48.174;11.562;2023-11-22T09:05:08;5.53;;;5.33;;
27802;SDS011;15182;48.174;11.562;2023-11-22T09:07:38;5.60;;;5.40;;
27802;SDS011;15182;48.174;11.562;2023-11-22T09:10:06;5.73;;;5.50;;
27802;SDS011;15182;48.174;11.562;2023-11-22T09:12:35;6.40;;;6.00;;
27802;SDS011;15182;48.174;11.562;2023-11-22T09:15:05;5.37;;;5.17;;
27802;SDS011;15182;48.174;11.562;2023-11-22T09:17:38;6.00;;;5.70;;
27802;SDS011;15182;48.174;11.562;2023-11-22T09:20:09;5.60;;;5.30;;
27802;SDS011;15182;48.174;11.562;2023-11-22T09:22:41;5.73;;;5.43;;
27802;SDS011;15182;48.174;11.562;2023-11-22T09:25:13;5.70;;;5.40;;
27802;SDS011;15182;48.174;11.562;2023-11-22T09:27:42;5.23;;;5.03;;
27802;SDS011;15182;48.174;11.562;2023-11-22T09:30:12;5.43;;;4.97;;
27802;SDS011;15182;48.174;11.562;2023-11-22T09:32:59;5.27;;;4.87;;
27802;SDS011;15182;48.174;11.562;2023-11-22T09:35:28;4.80;;;4.60;;
27802;SDS011;15182;48.174;11.562;2023-11-22T09:37:57;4.90;;;4.60;;
27802;SDS011;15182;48.174;11.562;2023-11-22T09:40:25;5.57;;;5.27;;
27802;SDS011;15182;48.174;11.562;2023-11-22T09:42:55;5.93;;;5.47;;
27802;SDS011;15182;48.174;11.562;2023-11-22T09:45:23;4.53;;;4.43;;
27802;SDS011;15182;48.174;11.562;2023-11-22T09:47:52;5.50;;;5.30;;
27802;SDS011;15182;48.174;11.562;2023-11-22T09:50:23;5.67;;;5.40;;
27802;SDS011;15182;48.174;11.562;2023-11-22T09:52:59;5.33;;;5.13;;
27802;SDS011;15182;48.174;11.562;2023-11-22T09:55:29;5.70;;;5.40;;
27802;SDS011;15182;48.174;11.562;2023-11-22T09:57:58;5.03;;;4.87;;
27802;SDS011;15182;48.174;11.562;2023-11-22T10:00:28;4.83;;;4.70;;
27802;SDS011;15182;48.174;11.562;2023-11-22T10:02:57;5.30;;;5.10;;
27802;SDS011;15182;48.174;11.562;2023-11-22T10:05:26;5.03;;;4.83;;
27802;SDS011;15182;48.174;11.562;2023-11-22T10:07:54;5.33;;;5.13;;
27802;SDS011;15182;48.174;11.562;2023-11-22T10:10:22;5.27;;;5.07;;
27802;SDS011;15182;48.174;11.562;2023-11-22T10:12:53;4.73;;;4.53;;
27802;SDS011;15182;48.174;11.562;2023-11-22T10:15:24;5.13;;;4.93;;
27802;SDS011;15182;48.174;11.562;2023-11-22T10:17:56;4.50;;;4.40;;
27802;SDS011;15182;48.174;11.562;2023-11-22T10:20:35;5.43;;;5.23;;
27802;SDS011;15182;48.174;11.562;2023-11-22T10:23:07;4.73;;;4.53;;
27802;SDS011;15182;48.174;11.562;2023-11-22T10:25:37;4.67;;;4.57;;
27802;SDS011;15182;48.174;11.562;2023-11-22T10:28:10;5.07;;;4.87;;
27802;SDS011;15182;48.174;11.562;2023-11-22T10:30:39;4.43;;;4.33;;
27802;SDS011;15182;48.174;11.562;2023-11-22T10:33:09;4.50;;;4.30;;
27802;SDS011;15182;48.174;11.562;2023-11-22T10:35:43;4.50;;;4.40;;
27802;SDS011;15182;48.174;11.562;2023-11-22T10:38:13;4.63;;;4.43;;
27802;SDS011;15182;48.174;11.562;2023-11-22T10:40:41;5.10;;;4.53;;
27802;SDS011;15182;48.174;11.562;2023-11-22T10:43:11;4.53;;;4.33;;
27802;SDS011;15182;48.174;11.562;2023-11-22T10:45:39;4.50;;;4.40;;
27802;SDS011;15182;48.174;11.562;2023-11-22T10:48:11;4.87;;;4.67;;
27802;SDS011;15182;48.174;11.562;2023-11-22T10:50:43;5.07;;;4.87;;
27802;SDS011;15182;48.174;11.562;2023-11-22T10:53:13;4.90;;;4.80;;
27802;SDS011;15182;48.174;11.562;2023-11-22T10:55:44;4.37;;;4.27;;
27802;SDS011;15182;48.174;11.562;2023-11-22T10:58:13;4.60;;;4.50;;
27802;SDS011;15182;48.174;11.562;2023-11-22T11:00:43;4.83;;;4.73;;
27802;SDS011;15182;48.174;11.562;2023-11-22T11:03:17;4.63;;;4.53;;
27802;SDS011;15182;48.174;11.562;2023-11-22T11:05:49;5.00;;;4.80;;
27802;SDS011;15182;48.174;11.562;2023-11-22T11:08:21;4.53;;;4.33;;
27802;SDS011;15182;48.174;11.562;2023-11-22T11:10:53;4.53;;;4.43;;
27802;SDS011;15182;48.174;11.562;2023-11-22T11:13:21;4.97;;;4.73;;
27802;SDS011;15182;48.174;11.562;2023-11-22T11:15:51;4.73;;;4.50;;
27802;SDS011;15182;48.174;11.562;2023-11-22T11:18:21;4.93;;;4.83;;
27802;SDS011;15182;48.174;11.562;2023-11-22T11:20:51;4.60;;;4.50;;
27802;SDS011;15182;48.174;11.562;2023-11-22T11:23:21;4.97;;;4.87;;
27802;SDS011;15182;48.174;11.562;2023-11-22T11:25:51;4.77;;;4.57;;
27802;SDS011;15182;48.174;11.562;2023-11-22T11:28:22;4.80;;;4.70;;
27802;SDS011;15182;48.174;11.562;2023-11-22T11:30:52;5.07;;;4.60;;
27802;SDS011;15182;48.174;11.562;2023-11-22T11:33:26;4.70;;;4.60;;
27802;SDS011;15182;48.174;11.562;2023-11-22T11:36:02;4.60;;;4.50;;
27802;SDS011;15182;48.174;11.562;2023-11-22T11:38:31;4.30;;;4.20;;
27802;SDS011;15182;48.174;11.562;2023-11-22T11:41:08;4.57;;;4.40;;
27802;SDS011;15182;48.174;11.562;2023-11-22T11:43:40;4.57;;;4.47;;
27802;SDS011;15182;48.174;11.562;2023-11-22T11:46:11;4.57;;;4.47;;
27802;SDS011;15182;48.174;11.562;2023-11-22T11:48:42;4.63;;;4.53;;
27802;SDS011;15182;48.174;11.562;2023-11-22T11:51:14;5.07;;;4.87;;
27802;SDS011;15182;48.174;11.562;2023-11-22T11:53:42;5.50;;;5.30;;
27802;SDS011;15182;48.174;11.562;2023-11-22T11:56:11;4.73;;;4.53;;
27802;SDS011;15182;48.174;11.562;2023-11-22T11:58:40;5.13;;;4.97;;
27802;SDS011;15182;48.174;11.562;2023-11-22T12:01:11;4.73;;;4.53;;
27802;SDS011;15182;48.174;11.562;2023-11-22T12:03:39;4.77;;;4.57;;
27802;SDS011;15182;48.174;11.562;2023-11-22T12:06:07;4.80;;;4.70;;
27802;SDS011;15182;48.174;11.562;2023-11-22T12:08:36;5.07;;;4.77;;
27802;SDS011;15182;48.174;11.562;2023-11-22T12:11:04;5.33;;;4.93;;
27802;SDS011;15182;48.174;11.562;2023-11-22T12:13:34;4.60;;;4.50;;
27802;SDS011;15182;48.174;11.562;2023-11-22T12:16:04;4.90;;;4.70;;
27802;SDS011;15182;48.174;11.562;2023-11-22T12:18:39;4.40;;;4.30;;
27802;SDS011;15182;48.174;11.562;2023-11-22T12:21:07;5.03;;;4.83;;
27802;SDS011;15182;48.174;11.562;2023-11-22T12:23:40;5.17;;;4.97;;
27802;SDS011;15182;48.174;11.562;2023-11-22T12:26:09;4.80;;;4.70;;
27802;SDS011;15182;48.174;11.562;2023-11-22T12:28:40;5.50;;;5.20;;
27802;SDS011;15182;48.174;11.562;2023-11-22T12:31:09;4.73;;;4.63;;
27802;SDS011;15182;48.174;11.562;2023-11-22T12:33:38;4.80;;;4.70;;
27802;SDS011;15182;48.174;11.562;2023-11-22T12:36:07;5.73;;;5.37;;
27802;SDS011;15182;48.174;11.562;2023-11-22T12:38:37;4.97;;;4.77;;
27802;SDS011;15182;48.174;11.562;2023-11-22T12:41:07;5.40;;;5.17;;
27802;SDS011;15182;48.174;11.562;2023-11-22T12:43:35;5.30;;;5.00;;
27802;SDS011;15182;48.174;11.562;2023-11-22T12:46:06;5.33;;;5.13;;
27802;SDS011;15182;48.174;11.562;2023-11-22T12:48:37;5.70;;;5.50;;
27802;SDS011;15182;48.174;11.562;2023-11-22T12:51:14;4.63;;;4.37;;
27802;SDS011;15182;48.174;11.562;2023-11-22T12:53:46;5.03;;;4.83;;
27802;SDS011;15182;48.174;11.562;2023-11-22T12:56:15;5.20;;;5.00;;
27802;SDS011;15182;48.174;11.562;2023-11-22T12:58:43;4.73;;;4.63;;
27802;SDS011;15182;48.174;11.562;2023-11-22T13:01:11;4.83;;;4.60;;
27802;SDS011;15182;48.174;11.562;2023-11-22T13:03:38;5.83;;;5.53;;
27802;SDS011;15182;48.174;11.562;2023-11-22T13:06:07;5.03;;;4.90;;
27802;SDS011;15182;48.174;11.562;2023-11-22T13:08:35;4.47;;;4.30;;
27802;SDS011;15182;48.174;11.562;2023-11-22T13:11:04;4.87;;;4.73;;
27802;SDS011;15182;48.174;11.562;2023-11-22T13:13:33;5.20;;;4.83;;
27802;SDS011;15182;48.174;11.562;2023-11-22T13:16:01;4.67;;;4.57;;
27802;SDS011;15182;48.174;11.562;2023-11-22T13:18:31;4.23;;;4.13;;
27802;SDS011;15182;48.174;11.562;2023-11-22T13:20:59;4.47;;;4.37;;
27802;SDS011;15182;48.174;11.562;2023-11-22T13:23:27;4.30;;;4.20;;
27802;SDS011;15182;48.174;11.562;2023-11-22T13:25:55;4.53;;;4.43;;
27802;SDS011;15182;48.174;11.562;2023-11-22T13:28:24;4.53;;;4.43;;
27802;SDS011;15182;48.174;11.562;2023-11-22T13:30:52;4.67;;;4.57;;
27802;SDS011;15182;48.174;11.562;2023-11-22T13:33:20;4.43;;;4.33;;
27802;SDS011;15182;48.174;11.562;2023-11-22T13:35:48;4.50;;;4.30;;
27802;SDS011;15182;48.174;11.562;2023-11-22T13:38:16;4.07;;;3.97;;
27802;SDS011;15182;48.174;11.562;2023-11-22T13:40:44;4.90;;;4.70;;
27802;SDS011;15182;48.174;11.562;2023-11-22T13:43:12;4.57;;;4.47;;
27802;SDS011;15182;48.174;11.562;2023-11-22T13:45:41;4.60;;;4.50;;
27802;SDS011;15182;48.174;11.562;2023-11-22T13:48:11;5.27;;;4.83;;
27802;SDS011;15182;48.174;11.562;2023-11-22T13:50:39;4.80;;;4.70;;
27802;SDS011;15182;48.174;11.562;2023-11-22T13:53:07;4.63;;;4.53;;
27802;SDS011;15182;48.174;11.562;2023-11-22T13:55:36;4.93;;;4.53;;
27802;SDS011;15182;48.174;11.562;2023-11-22T13:58:04;4.43;;;4.33;;
27802;SDS011;15182;48.174;11.562;2023-11-22T14:00:34;4.87;;;4.77;;
27802;SDS011;15182;48.174;11.562;2023-11-22T14:03:05;5.10;;;4.90;;
27802;SDS011;15182;48.174;11.562;2023-11-22T14:05:34;4.93;;;4.83;;
27802;SDS011;15182;48.174;11.562;2023-11-22T14:08:04;5.07;;;4.87;;
27802;SDS011;15182;48.174;11.562;2023-11-22T14:10:33;4.70;;;4.60;;
27802;SDS011;15182;48.174;11.562;2023-11-22T14:13:01;4.53;;;4.43;;
27802;SDS011;15182;48.174;11.562;2023-11-22T14:15:30;4.67;;;4.57;;
27802;SDS011;15182;48.174;11.562;2023-11-22T14:17:58;4.80;;;4.33;;
27802;SDS011;15182;48.174;11.562;2023-11-22T14:20:27;5.27;;;5.07;;
27802;SDS011;15182;48.174;11.562;2023-11-22T14:22:56;5.20;;;5.00;;
27802;SDS011;15182;48.174;11.562;2023-11-22T14:25:24;5.50;;;5.30;;
27802;SDS011;15182;48.174;11.562;2023-11-22T14:27:52;5.87;;;5.20;;
27802;SDS011;15182;48.174;11.562;2023-11-22T14:30:22;6.90;;;6.40;;
27802;SDS011;15182;48.174;11.562;2023-11-22T14:32:51;5.70;;;5.43;;
27802;SDS011;15182;48.174;11.562;2023-11-22T14:35:19;5.17;;;4.87;;
27802;SDS011;15182;48.174;11.562;2023-11-22T14:37:50;4.80;;;4.67;;
27802;SDS011;15182;48.174;11.562;2023-11-22T14:40:19;5.03;;;4.73;;
27802;SDS011;15182;48.174;11.562;2023-11-22T14:42:47;4.77;;;4.57;;
27802;SDS011;15182;48.174;11.562;2023-11-22T14:45:17;4.70;;;4.60;;